createdAt,value
2023-05-22T05:32:24.190Z,22.30
2023-05-22T05:34:51.513Z,24.50
2023-05-22T05:37:18.749Z,23.80
2023-05-22T05:39:45.990Z,24.20
2023-05-22T05:42:13.551Z,24.80
2023-05-22T05:44:42.292Z,26.00
2023-05-22T05:47:09.439Z,25.50
2023-05-22T05:49:36.700Z,25.70
2023-05-22T05:52:05.073Z,26.00
2023-05-22T05:54:32.540Z,26.80
2023-05-22T05:56:59.852Z,26.20
2023-05-22T05:59:27.154Z,26.50
2023-05-22T06:01:57.410Z,26.90
2023-05-22T06:04:24.703Z,27.30
2023-05-22T06:06:53.823Z,27.30
2023-05-22T06:09:25.197Z,27.00
2023-05-22T06:11:55.747Z,27.40
2023-05-22T06:14:23.993Z,28.00
2023-05-22T06:16:52.788Z,28.30
2023-05-22T06:19:25.248Z,28.90
2023-05-22T06:21:55.161Z,28.90
2023-05-22T06:24:24.528Z,29.70
2023-05-22T06:26:52.964Z,29.60
2023-05-22T06:29:21.728Z,29.80
2023-05-22T06:31:56.104Z,29.50
2023-05-22T06:34:26.497Z,29.10
2023-05-22T06:39:29.121Z,29.00
2023-05-22T06:42:04.119Z,29.50
2023-05-22T06:44:32.246Z,28.90
2023-05-22T06:56:57.955Z,29.50
2023-05-22T06:59:26.668Z,32.80
2023-05-22T07:04:25.571Z,31.00
2023-05-22T07:06:53.733Z,31.10
2023-05-22T07:09:21.377Z,30.70
2023-05-22T07:11:49.117Z,30.60
2023-05-22T07:14:19.591Z,30.50
2023-05-22T07:16:51.684Z,31.20
2023-05-22T07:19:19.952Z,31.20
2023-05-22T07:21:49.418Z,31.20
2023-05-22T07:27:05.507Z,31.20
2023-05-22T07:29:36.594Z,31.50
2023-05-22T07:32:07.716Z,31.00
2023-05-22T07:34:36.454Z,28.80
2023-05-22T07:37:09.456Z,29.60
2023-05-22T07:47:02.617Z,31.60
2023-05-22T07:49:30.127Z,31.70
2023-05-22T07:51:58.246Z,31.50
2023-05-22T07:54:26.668Z,31.40
2023-05-22T07:56:56.956Z,30.30
2023-05-22T07:59:54.677Z,30.50
2023-05-22T08:09:49.730Z,32.90
2023-05-22T08:12:17.749Z,33.20
2023-05-22T08:14:45.734Z,32.90
2023-05-22T08:17:18.536Z,32.30
2023-05-22T08:19:56.035Z,31.90
2023-05-22T08:22:30.415Z,31.30
2023-05-22T08:32:21.575Z,32.90
2023-05-22T08:34:49.113Z,32.60
2023-05-22T08:37:22.681Z,32.50
2023-05-22T08:39:50.141Z,32.00
2023-05-22T08:42:18.051Z,31.40
2023-05-22T08:44:47.682Z,31.70
2023-05-22T08:47:15.560Z,32.20
2023-05-22T08:49:45.497Z,32.10
2023-05-22T08:52:17.645Z,33.10
2023-05-22T08:54:52.110Z,33.20
2023-05-22T08:57:20.683Z,32.70
2023-05-22T08:59:48.345Z,32.50
2023-05-22T09:02:17.606Z,31.90
2023-05-22T09:04:45.078Z,32.40
2023-05-22T09:07:14.568Z,32.60
2023-05-22T09:09:42.314Z,32.80
2023-05-22T09:12:10.766Z,32.20
2023-05-22T09:14:42.783Z,32.10
2023-05-22T09:17:12.040Z,31.40
2023-05-22T09:19:44.018Z,31.20
2023-05-22T09:22:12.890Z,30.20
2023-05-22T09:24:44.940Z,29.40
2023-05-22T09:27:12.506Z,28.40
2023-05-22T09:29:49.853Z,27.40
2023-05-22T09:32:18.591Z,27.50
2023-05-22T09:34:49.830Z,26.60
2023-05-22T09:37:18.256Z,26.00
2023-05-22T09:39:47.658Z,26.40
2023-05-22T09:42:17.844Z,26.60
2023-05-22T09:44:49.855Z,26.30
2023-05-22T09:47:17.436Z,26.30
2023-05-22T09:49:46.105Z,26.70
2023-05-22T09:52:13.681Z,27.80
2023-05-22T09:55:11.370Z,28.70
2023-05-22T09:57:45.079Z,29.10
2023-05-22T10:00:15.757Z,29.00
2023-05-22T10:02:47.320Z,31.20
2023-05-22T10:05:22.476Z,30.50
2023-05-22T10:07:52.260Z,31.50
2023-05-22T10:10:23.034Z,31.40
2023-05-22T10:13:01.115Z,31.80
2023-05-22T10:15:32.252Z,31.60
2023-05-22T10:18:00.325Z,30.90
2023-05-22T10:20:29.885Z,29.80
2023-05-22T10:22:57.914Z,29.70
2023-05-22T10:25:26.172Z,30.10
2023-05-22T10:27:55.009Z,30.20
2023-05-22T10:30:47.831Z,30.70
2023-05-22T10:33:29.569Z,30.80
2023-05-22T10:36:10.695Z,30.70
2023-05-22T10:38:44.080Z,30.70
2023-05-22T10:41:11.757Z,30.70
2023-05-22T10:43:42.813Z,30.50
2023-05-22T10:46:13.057Z,30.10
2023-05-22T10:48:52.809Z,30.10
2023-05-22T10:51:22.322Z,30.10
2023-05-22T10:53:58.434Z,29.80
2023-05-22T10:56:36.339Z,29.90
2023-05-22T10:59:05.403Z,30.10
2023-05-22T11:01:38.342Z,30.30
2023-05-22T11:04:09.334Z,30.00
2023-05-22T11:06:56.931Z,29.90
2023-05-22T11:09:38.925Z,30.20
2023-05-22T11:12:20.709Z,30.20
2023-05-22T11:14:53.470Z,30.20
2023-05-22T11:17:23.207Z,30.20
2023-05-22T11:20:07.453Z,30.30
2023-05-22T11:22:36.111Z,30.70
2023-05-22T11:25:07.566Z,30.60
2023-05-22T11:27:36.635Z,30.50
2023-05-22T11:30:04.879Z,30.60
2023-05-22T11:32:32.341Z,30.50
2023-05-22T11:35:00.286Z,30.50
2023-05-22T11:37:28.960Z,30.00
2023-05-22T11:39:57.809Z,29.40
2023-05-22T11:42:25.591Z,29.60
2023-05-22T11:44:53.017Z,29.50
2023-05-22T11:47:20.487Z,29.40
2023-05-22T11:49:47.835Z,29.40
2023-05-22T11:52:16.658Z,29.10
2023-05-22T11:54:47.480Z,28.70
2023-05-22T11:57:15.552Z,28.00
2023-05-22T11:59:47.199Z,27.30
2023-05-22T12:02:16.397Z,27.80
2023-05-22T12:04:43.922Z,28.10
2023-05-22T12:07:11.930Z,28.10
2023-05-22T12:09:43.102Z,28.60
2023-05-22T12:12:11.518Z,28.50
2023-05-22T12:14:39.287Z,28.00
2023-05-22T12:17:07.089Z,27.70
2023-05-22T12:19:37.339Z,27.40
2023-05-22T12:22:05.212Z,27.90
2023-05-22T12:24:48.455Z,27.90
2023-05-22T12:27:15.941Z,27.80
2023-05-22T12:29:43.535Z,27.70
2023-05-22T12:32:12.664Z,28.00
2023-05-22T12:34:47.672Z,27.90
2023-05-22T12:37:19.147Z,27.90
2023-05-22T12:39:57.382Z,27.20
2023-05-22T12:42:28.486Z,27.20
2023-05-22T12:44:57.347Z,27.10
2023-05-22T12:47:25.416Z,27.20
2023-05-22T12:49:53.239Z,27.70
2023-05-22T12:52:20.727Z,27.20
2023-05-22T12:54:48.280Z,27.20
2023-05-22T12:57:17.147Z,27.20
2023-05-22T12:59:46.537Z,27.40
2023-05-22T13:02:13.956Z,27.40
2023-05-22T13:04:41.391Z,27.10
2023-05-22T13:07:08.753Z,27.10
2023-05-22T13:09:36.508Z,27.20
2023-05-22T13:12:03.920Z,27.30
2023-05-22T13:14:31.559Z,27.30
2023-05-22T13:16:58.950Z,26.80
2023-05-22T13:19:26.671Z,26.90
2023-05-22T13:21:54.019Z,27.20
2023-05-22T13:24:21.307Z,27.00
2023-05-22T13:26:48.717Z,27.00
2023-05-22T13:29:15.951Z,26.90
2023-05-22T13:31:43.402Z,27.20
2023-05-22T13:34:11.004Z,28.00
2023-05-22T13:36:38.295Z,27.40
2023-05-22T13:39:05.609Z,27.20
2023-05-22T13:41:32.920Z,26.60
2023-05-22T13:44:00.317Z,26.80
2023-05-22T13:46:27.764Z,26.80
2023-05-22T13:48:55.081Z,26.90
2023-05-22T13:51:22.294Z,27.30
2023-05-22T13:53:49.593Z,27.80
2023-05-22T13:56:16.952Z,27.60
2023-05-22T13:58:44.348Z,27.80
2023-05-22T14:03:39.401Z,27.60
2023-05-22T14:06:06.952Z,27.60
2023-05-22T14:08:34.368Z,27.40
2023-05-22T14:11:01.868Z,27.40
2023-05-22T14:13:30.124Z,27.70
2023-05-22T14:15:57.553Z,27.80
2023-05-22T14:18:25.078Z,27.80
2023-05-22T14:20:52.646Z,28.00
2023-05-22T14:23:20.364Z,28.10
2023-05-22T14:25:47.750Z,28.30
2023-05-22T14:28:15.931Z,28.50
2023-05-22T14:30:43.290Z,28.80
2023-05-22T14:33:13.904Z,28.80
2023-05-22T14:35:41.826Z,28.30
2023-05-22T14:38:09.355Z,28.50
2023-05-22T14:40:36.698Z,28.70
2023-05-22T14:43:04.228Z,28.80
2023-05-22T14:45:31.616Z,28.70
2023-05-22T14:47:59.226Z,28.00
2023-05-22T14:50:26.577Z,28.10
2023-05-22T14:52:53.872Z,28.30
2023-05-22T14:55:21.734Z,28.20
2023-05-22T14:57:49.186Z,28.60
2023-05-22T15:00:16.905Z,28.40
2023-05-22T15:02:44.122Z,27.60
2023-05-22T15:05:11.778Z,27.70
2023-05-22T15:07:44.503Z,27.50
2023-05-22T15:10:13.552Z,27.10
2023-05-22T15:12:40.807Z,27.80
2023-05-22T15:15:08.547Z,27.90
2023-05-22T15:17:35.940Z,27.70
2023-05-22T15:20:04.817Z,27.50
2023-05-22T15:22:31.971Z,27.30
2023-05-22T15:25:11.680Z,27.40
2023-05-22T15:27:39.430Z,27.20
2023-05-22T15:30:09.737Z,27.00
2023-05-22T15:32:37.866Z,27.10
2023-05-22T15:35:06.544Z,27.00
2023-05-22T15:37:34.201Z,27.00
2023-05-22T15:40:02.376Z,26.80
2023-05-22T15:42:30.635Z,26.80
2023-05-22T15:44:59.625Z,27.00
2023-05-22T15:47:26.895Z,26.70
2023-05-22T15:49:54.196Z,26.80
2023-05-22T15:52:24.219Z,26.80
2023-05-22T15:54:51.456Z,27.40
2023-05-22T15:57:18.693Z,26.00
2023-05-22T15:59:47.392Z,27.10
